Time;durP1;ratioP1;P1;durP2;ratioP2;P2;SDS_P1;SDS_P2;PMS_P1;PMS_P2;Temp;Humidity;BMP_temperature;BMP_pressure;BME280_temperature;BME280_humidity;BME280_pressure;Samples;Min_cycle;Max_cycle;Signal;HPM_P1;HPM_P2
2022/12/01 00:03:39;;;;;;;74.12;33.10;;;;;;;-0.32;100.00;100060.34;4276246;81;21011;-86
2022/12/01 00:16:12;;;;;;;73.45;32.00;;;;;;;-0.32;100.00;100058.19;4279106;82;21994;-86
2022/12/01 00:22:13;;;;;;;69.42;33.45;;;;;;;-0.33;100.00;100055.23;4277792;82;21499;-86
2022/12/01 00:28:16;;;;;;;80.05;35.88;;;;;;;-0.36;100.00;100055.23;4269522;82;21063;-86
2022/12/01 00:34:24;;;;;;;71.22;33.63;;;;;;;-0.44;100.00;100043.71;4289927;82;20995;-86
2022/12/01 00:40:26;;;;;;;78.62;33.85;;;;;;;-0.30;100.00;100081.59;4274418;82;21110;-86
2022/12/01 00:46:27;;;;;;;84.00;37.80;;;;;;;-0.30;100.00;100081.59;4277676;82;21031;-86
2022/12/01 00:52:29;;;;;;;68.92;32.48;;;;;;;-0.31;100.00;100072.70;4283486;82;21013;-86
2022/12/01 00:58:30;;;;;;;80.75;35.65;;;;;;;-0.28;100.00;100070.80;4281540;82;20959;-85
2022/12/01 01:04:35;;;;;;;79.37;35.33;;;;;;;-0.25;100.00;100064.08;4361774;80;21109;-87
2022/12/01 01:10:40;;;;;;;73.97;33.93;;;;;;;-0.25;100.00;100064.08;4368819;80;21018;-86
2022/12/01 01:16:41;;;;;;;80.97;35.13;;;;;;;-0.19;100.00;100048.94;4363517;80;21048;-86
2022/12/01 01:22:42;;;;;;;77.80;34.92;;;;;;;-0.19;100.00;100048.94;4370164;80;20981;-86
2022/12/01 01:28:45;;;;;;;77.17;34.27;;;;;;;-0.19;100.00;100048.94;4368064;80;21450;-87
2022/12/01 01:34:47;;;;;;;75.28;33.67;;;;;;;-0.21;100.00;100034.17;4368109;80;20985;-86
2022/12/01 01:40:48;;;;;;;74.10;33.95;;;;;;;-0.25;100.00;100027.75;4374965;80;20932;-86
2022/12/01 01:46:50;;;;;;;68.07;33.80;;;;;;;-0.21;100.00;100038.20;4363322;80;21034;-87
2022/12/01 01:53:05;;;;;;;80.28;35.90;;;;;;;-0.19;100.00;100032.80;4363019;80;21069;-86
2022/12/01 01:59:08;;;;;;;55.05;25.25;;;;;;;-0.16;100.00;100031.45;4372104;80;21010;-86
2022/12/01 02:05:20;;;;;;;68.95;32.17;;;;;;;-0.19;100.00;100022.03;4375273;80;21008;-86
2022/12/01 02:11:33;;;;;;;79.25;35.10;;;;;;;-0.17;100.00;100027.13;4261981;81;21374;-88
2022/12/01 02:17:58;;;;;;;77.00;33.80;;;;;;;-0.15;100.00;100026.31;4280026;81;20978;-86
2022/12/01 02:24:36;;;;;;;69.62;32.70;;;;;;;-0.13;100.00;100020.13;4274148;82;21056;-87
2022/12/01 02:30:49;;;;;;;72.10;33.60;;;;;;;-0.09;100.00;100025.19;4272313;82;20955;-88
2022/12/01 02:37:00;;;;;;;71.47;33.30;;;;;;;-0.09;100.00;100031.39;4389491;79;20987;-87
2022/12/01 02:43:28;;;;;;;75.85;33.63;;;;;;;-0.06;100.00;100028.66;4382169;80;21009;-87
2022/12/01 02:49:37;;;;;;;71.17;33.38;;;;;;;-0.05;100.00;100020.31;4375117;80;21622;-87
2022/12/01 02:55:52;;;;;;;70.60;33.85;;;;;;;-0.07;100.00;100010.39;4364451;80;21042;-86
2022/12/01 03:02:31;;;;;;;71.57;34.13;;;;;;;-0.07;100.00;100009.05;4352996;80;21009;-87
2022/12/01 03:08:56;;;;;;;70.55;33.98;;;;;;;-0.09;100.00;100000.44;4338234;80;21013;-88
2022/12/01 03:15:34;;;;;;;72.50;34.78;;;;;;;-0.07;100.00;100002.31;4244489;82;21025;-86
2022/12/01 03:21:50;;;;;;;74.12;36.15;;;;;;;-0.07;100.00;100001.50;4230722;82;21159;-87
2022/12/01 03:27:55;;;;;;;74.10;34.63;;;;;;;-0.07;100.00;100004.19;4194828;84;21458;-88
2022/12/01 03:34:09;;;;;;;73.30;33.75;;;;;;;-0.06;100.00;100004.44;4197842;83;20991;-87
2022/12/01 03:40:16;;;;;;;66.87;33.48;;;;;;;-0.04;100.00;99995.55;4198248;83;21023;-88
2022/12/01 03:46:40;;;;;;;72.17;34.03;;;;;;;-0.05;100.00;99983.97;4194713;83;20999;-87
2022/12/01 03:52:52;;;;;;;69.42;32.33;;;;;;;-0.05;100.00;99980.50;4196748;83;21003;-87
2022/12/01 03:58:58;;;;;;;73.25;34.70;;;;;;;-0.03;100.00;99971.58;4193734;83;21547;-90
2022/12/01 04:05:03;;;;;;;69.25;32.83;;;;;;;-0.03;100.00;99972.39;4193105;83;21047;-88
2022/12/01 04:12:28;;;;;;;67.42;32.80;;;;;;;-0.10;100.00;99949.58;4329769;80;20989;-88
2022/12/01 04:17:08;;;;;;;69.72;32.67;;;;;;;-0.10;100.00;99949.58;4276750;82;21005;-88
2022/12/01 04:23:58;;;;;;;64.47;30.05;;;;;;;0.03;100.00;99970.47;4265283;82;21023;-89
2022/12/01 04:29:13;;;;;;;60.58;29.35;;;;;;;-0.05;100.00;99942.25;4216000;82;111754;-89
2022/12/01 04:35:15;;;;;;;66.35;30.88;;;;;;;-0.05;100.00;99942.25;4232658;82;21060;-88
2022/12/01 04:41:17;;;;;;;62.73;29.75;;;;;;;-0.01;100.00;99954.61;4228364;82;20952;-87
2022/12/01 04:47:18;;;;;;;63.50;29.48;;;;;;;0.02;100.00;99962.12;4227812;82;21016;-88
2022/12/01 04:53:22;;;;;;;63.80;31.23;;;;;;;0.12;100.00;99975.50;4226110;82;21388;-88
2022/12/01 04:59:24;;;;;;;57.78;27.85;;;;;;;0.14;100.00;99975.22;4240186;82;21920;-88
2022/12/01 05:05:26;;;;;;;63.70;30.88;;;;;;;0.18;100.00;99980.28;4186522;82;20988;-88
2022/12/01 05:11:29;;;;;;;59.65;28.47;;;;;;;0.19;100.00;99977.30;4163725;84;21052;-89
2022/12/01 05:17:31;;;;;;;57.13;26.75;;;;;;;0.25;100.00;99972.70;4163126;85;21061;-88
2022/12/01 05:23:35;;;;;;;53.38;26.33;;;;;;;0.25;100.00;99972.70;4125913;84;21122;-87
2022/12/01 05:29:39;;;;;;;62.33;29.10;;;;;;;0.26;100.00;99976.45;4149661;85;21019;-88
2022/12/01 05:35:40;;;;;;;54.55;26.97;;;;;;;0.28;100.00;99983.71;4154990;84;21048;-88
2022/12/01 05:41:44;;;;;;;48.83;25.05;;;;;;;0.30;100.00;99983.42;4293826;82;20948;-88
2022/12/01 05:47:45;;;;;;;49.55;24.75;;;;;;;0.34;100.00;99984.45;4285460;82;22059;-88
2022/12/01 05:53:48;;;;;;;52.03;24.02;;;;;;;0.38;100.00;99992.20;4294756;82;21668;-90
2022/12/01 06:00:04;;;;;;;46.08;22.58;;;;;;;0.39;100.00;99993.30;4266547;82;21049;-88
2022/12/01 06:06:11;;;;;;;42.27;21.37;;;;;;;0.41;100.00;99999.75;4256126;82;21081;-89
2022/12/01 06:12:12;;;;;;;43.87;22.17;;;;;;;0.44;100.00;100007.27;4286772;82;21406;-89
2022/12/01 06:18:14;;;;;;;45.03;22.25;;;;;;;0.45;100.00;100008.33;4280699;82;21112;-90
2022/12/01 06:24:16;;;;;;;39.15;22.10;;;;;;;0.47;100.00;100004.78;4277017;82;21033;-89
2022/12/01 06:30:19;;;;;;;39.23;20.43;;;;;;;0.49;100.00;100004.50;4286900;82;21019;-90
2022/12/01 06:36:20;;;;;;;43.23;23.32;;;;;;;0.53;100.00;100008.24;4291787;82;21565;-89
2022/12/01 06:42:22;;;;;;;47.25;24.00;;;;;;;0.53;100.00;100005.02;4283841;82;21035;-88
2022/12/01 06:48:23;;;;;;;39.38;20.65;;;;;;;0.56;100.00;100008.48;4283508;82;20989;-88
2022/12/01 06:54:24;;;;;;;38.67;20.00;;;;;;;0.58;100.00;100006.84;4296225;82;21945;-90
2022/12/01 07:00:26;;;;;;;41.70;21.45;;;;;;;0.59;100.00;100006.56;4304283;82;20993;-90
2022/12/01 07:06:51;;;;;;;38.60;19.73;;;;;;;0.61;100.00;100008.97;4310887;80;21011;-89
2022/12/01 07:12:56;;;;;;;37.73;20.90;;;;;;;0.63;100.00;100018.37;4328465;80;21111;-89
2022/12/01 07:18:58;;;;;;;44.73;21.65;;;;;;;0.64;100.00;100010.56;4329509;80;21082;-88
2022/12/01 07:25:01;;;;;;;40.80;20.02;;;;;;;0.65;100.00;100008.11;4331547;80;21076;-90
2022/12/01 07:31:15;;;;;;;39.50;20.25;;;;;;;0.68;100.00;100011.58;4306873;80;21954;-88
2022/12/01 07:37:17;;;;;;;38.75;19.82;;;;;;;0.72;100.00;100009.91;4339470;80;20991;-89
2022/12/01 07:43:18;;;;;;;35.60;19.27;;;;;;;0.74;100.00;100005.05;4339886;80;21074;-89
2022/12/01 07:49:20;;;;;;;37.90;19.73;;;;;;;0.77;100.00;100006.35;4334092;80;21082;-88
2022/12/01 07:55:21;;;;;;;41.02;21.62;;;;;;;0.78;100.00;100011.48;4318359;80;21001;-88
2022/12/01 08:01:23;;;;;;;35.40;18.42;;;;;;;0.81;100.00;100008.75;4328272;80;20993;-88
2022/12/01 08:07:25;;;;;;;35.80;18.12;;;;;;;0.82;100.00;100017.09;4347952;80;21652;-88
2022/12/01 08:13:33;;;;;;;34.45;17.25;;;;;;;0.84;100.00;100009.52;4340719;80;21051;-89
2022/12/01 08:19:35;;;;;;;38.75;19.42;;;;;;;0.86;100.00;100012.74;4303567;80;21043;-87
2022/12/01 08:25:36;;;;;;;44.38;19.42;;;;;;;0.89;100.00;100021.03;4331249;80;21911;-87
2022/12/01 08:31:39;;;;;;;39.33;18.95;;;;;;;0.90;100.00;100018.62;4328770;80;20979;-89
2022/12/01 08:37:41;;;;;;;37.10;18.60;;;;;;;0.91;100.00;100026.95;4314102;80;21016;-88
2022/12/01 08:43:43;;;;;;;36.20;18.02;;;;;;;0.90;100.00;100028.05;4322823;80;20989;-88
2022/12/01 08:49:44;;;;;;;37.50;18.12;;;;;;;0.91;100.00;100026.17;4322069;80;20996;-87
2022/12/01 08:55:46;;;;;;;33.67;18.80;;;;;;;0.93;100.00;100047.70;4330549;80;21026;-88
2022/12/01 09:29:12;;;;;;;27.60;15.55;;;;;;;0.96;100.00;100029.59;4309216;82;22041;-88
2022/12/01 09:35:20;;;;;;;24.00;13.32;;;;;;;0.98;100.00;100027.96;4275769;82;20986;-88
2022/12/01 09:42:06;;;;;;;29.60;17.05;;;;;;;0.98;100.00;100024.73;4300857;82;21486;-86
2022/12/01 09:48:18;;;;;;;28.05;15.28;;;;;;;0.99;100.00;100027.67;4308229;82;21000;-86
2022/12/01 09:54:22;;;;;;;27.77;15.53;;;;;;;0.99;100.00;100017.42;4277977;82;21536;-88
2022/12/01 10:00:37;;;;;;;26.97;15.30;;;;;;;0.99;100.00;100008.80;4321391;82;21456;-87
2022/12/01 10:06:47;;;;;;;34.70;15.72;;;;;;;0.98;100.00;100007.20;4301204;82;21033;-87
2022/12/01 10:12:48;;;;;;;28.90;15.72;;;;;;;1.00;100.00;100006.92;4284693;81;21756;-87
2022/12/01 10:19:34;;;;;;;23.90;13.62;;;;;;;1.02;100.00;100003.37;4285163;82;21703;-86
2022/12/01 10:25:44;;;;;;;25.50;15.08;;;;;;;1.04;100.00;100009.28;4291583;82;21457;-86
2022/12/01 10:31:59;;;;;;;28.52;15.08;;;;;;;1.04;100.00;100005.23;4274482;82;21003;-87
2022/12/01 10:38:05;;;;;;;33.23;17.80;;;;;;;1.06;100.00;100002.53;4276578;82;21290;-87
2022/12/01 10:44:08;;;;;;;27.35;16.07;;;;;;;1.04;100.00;99996.61;4282326;82;21055;-85
2022/12/01 10:50:27;;;;;;;26.85;14.55;;;;;;;1.05;100.00;99985.30;4257160;82;22017;-86
2022/12/01 10:56:30;;;;;;;29.47;15.90;;;;;;;0.97;100.00;99974.58;4298897;82;21437;-87
2022/12/01 11:02:32;;;;;;;34.13;17.80;;;;;;;1.03;100.00;99978.84;4244437;82;21409;-86
2022/12/01 11:08:48;;;;;;;40.30;19.32;;;;;;;1.04;100.00;99971.00;4288257;82;20996;-86
2022/12/01 11:14:53;;;;;;;37.42;19.27;;;;;;;1.03;100.00;99967.24;4289582;81;21662;-86
2022/12/01 11:21:15;;;;;;;44.93;22.20;;;;;;;1.04;100.00;99968.84;4289233;82;21552;-86
2022/12/01 11:27:53;;;;;;;37.73;18.75;;;;;;;1.04;100.00;99967.48;4279231;82;21073;-87
2022/12/01 11:33:55;;;;;;;53.78;25.20;;;;;;;1.02;100.00;99965.08;4263534;82;21913;-87
2022/12/01 11:40:26;;;;;;;41.00;19.75;;;;;;;1.00;100.00;99956.47;4291135;82;20993;-87
2022/12/01 11:46:33;;;;;;;37.23;18.77;;;;;;;1.03;100.00;99960.50;4290720;82;20997;-87
2022/12/01 11:52:45;;;;;;;37.50;19.75;;;;;;;1.02;100.00;99961.58;4260147;82;21020;-87
2022/12/01 11:58:49;;;;;;;38.15;19.98;;;;;;;1.01;100.00;99966.72;4290041;82;21076;-86
2022/12/01 12:05:15;;;;;;;49.80;22.02;;;;;;;1.03;100.00;99966.70;4288255;81;21013;-86
2022/12/01 12:11:34;;;;;;;41.95;20.77;;;;;;;1.00;100.00;99961.86;4291569;80;21039;-87
2022/12/01 12:18:07;;;;;;;36.68;19.32;;;;;;;0.96;100.00;99964.08;4347947;80;20987;-86
2022/12/01 12:24:29;;;;;;;43.40;20.43;;;;;;;0.97;100.00;99962.45;4284598;80;21589;-88
2022/12/01 12:30:37;;;;;;;40.60;19.17;;;;;;;0.98;100.00;99970.00;4280992;82;21063;-87
2022/12/01 12:36:56;;;;;;;40.35;19.82;;;;;;;0.94;100.00;99968.41;4308407;80;21059;-87
2022/12/01 12:43:38;;;;;;;41.20;20.00;;;;;;;0.87;100.00;99963.94;4329109;80;21543;-86
2022/12/01 12:50:23;;;;;;;41.83;19.12;;;;;;;0.86;100.00;99960.96;4361687;80;21614;-86
2022/12/01 12:56:29;;;;;;;39.75;20.57;;;;;;;0.87;100.00;99963.94;4349333;80;20989;-86
2022/12/01 13:03:11;;;;;;;41.90;21.68;;;;;;;0.84;100.00;99964.52;4343652;80;21877;-86
2022/12/01 13:09:24;;;;;;;40.52;22.15;;;;;;;0.86;100.00;99964.22;4335312;80;20982;-87
2022/12/01 13:15:54;;;;;;;46.95;22.17;;;;;;;0.84;100.00;99965.05;4340708;80;20992;-85
2022/12/01 13:21:57;;;;;;;40.52;21.15;;;;;;;0.83;100.00;99964.23;4338305;80;21063;-85
2022/12/01 13:28:01;;;;;;;44.65;23.12;;;;;;;0.80;100.00;99966.16;4325771;80;20951;-86
2022/12/01 13:34:27;;;;;;;51.33;25.60;;;;;;;0.83;100.00;99960.76;4359271;80;21015;-86
2022/12/01 13:40:30;;;;;;;49.00;24.10;;;;;;;0.84;100.00;99969.09;4252648;80;38400;-88
2022/12/01 13:46:49;;;;;;;45.20;23.85;;;;;;;0.84;100.00;99971.78;4230755;83;21027;-86
2022/12/01 13:53:36;;;;;;;44.03;23.60;;;;;;;0.84;100.00;99972.59;4196146;83;21095;-86
2022/12/01 14:00:18;;;;;;;55.15;25.43;;;;;;;0.83;100.00;99969.63;4224857;83;20989;-87
2022/12/01 14:06:37;;;;;;;46.02;24.72;;;;;;;0.85;100.00;99972.84;4217155;83;21053;-86
2022/12/01 14:12:40;;;;;;;43.65;23.20;;;;;;;0.84;100.00;99969.09;4217342;83;21954;-84
2022/12/01 14:18:56;;;;;;;49.98;23.80;;;;;;;0.84;100.00;99960.47;4215887;83;21055;-86
2022/12/01 14:25:06;;;;;;;44.77;22.60;;;;;;;0.85;100.00;99963.95;4231424;83;21031;-87
2022/12/01 14:31:12;;;;;;;36.35;18.87;;;;;;;0.84;100.00;99971.78;4201831;83;22005;-86
2022/12/01 14:37:18;;;;;;;;;;;;;;;0.82;100.00;99968.03;4224583;83;21020;-87
2022/12/01 14:50:00;;;;;;;39.63;19.73;;;;;;;0.83;100.00;99963.45;4184175;83;21494;-85
2022/12/01 14:56:10;;;;;;;37.67;19.77;;;;;;;0.80;100.00;99960.77;4213767;83;21889;-86
2022/12/01 15:02:16;;;;;;;36.70;19.75;;;;;;;0.78;100.00;99967.55;4216879;83;20972;-86
2022/12/01 15:08:27;;;;;;;;;;;;;;;0.79;100.00;99965.10;4223417;83;20988;-86
2022/12/01 15:14:41;;;;;;;32.63;16.37;;;;;;;0.79;100.00;99966.45;4206337;83;20118;-86
2022/12/01 15:20:43;;;;;;;34.05;17.90;;;;;;;0.79;100.00;99960.52;4215905;83;20952;-86
2022/12/01 15:26:54;;;;;;;35.58;17.27;;;;;;;0.78;100.00;99965.67;4201912;83;21211;-86
2022/12/01 15:32:57;;;;;;;36.50;17.70;;;;;;;0.77;100.00;99969.44;4208874;83;21022;-86
2022/12/01 15:39:00;;;;;;;35.23;16.37;;;;;;;0.75;100.00;99975.64;4190262;83;21635;-86
2022/12/01 15:45:13;;;;;;;32.10;17.07;;;;;;;0.73;100.00;99965.72;4208586;83;21984;-86
2022/12/01 15:51:25;;;;;;;37.10;18.42;;;;;;;0.76;100.00;99971.88;4205101;83;21042;-86
2022/12/01 15:57:27;;;;;;;37.58;20.62;;;;;;;0.73;100.00;99972.45;4213307;83;21009;-86
2022/12/01 16:03:28;;;;;;;34.88;18.90;;;;;;;0.73;100.00;99973.80;4215285;83;20949;-87
2022/12/01 16:09:55;;;;;;;36.53;18.32;;;;;;;0.75;100.00;99969.47;4200989;83;21056;-85
2022/12/01 16:15:56;;;;;;;30.20;18.00;;;;;;;0.74;100.00;99967.31;4224215;82;21067;-86
2022/12/01 16:22:13;;;;;;;35.40;19.02;;;;;;;0.60;100.00;99948.88;4216322;82;21498;-86
2022/12/01 16:28:24;;;;;;;34.15;17.77;;;;;;;0.60;100.00;99948.88;4284335;81;21082;-87
2022/12/01 16:34:27;;;;;;;32.98;16.20;;;;;;;0.72;100.00;99968.70;4289950;81;21015;-88
2022/12/01 16:40:29;;;;;;;28.67;15.95;;;;;;;0.69;100.00;99971.97;4280919;81;21027;-86
2022/12/01 16:46:31;;;;;;;25.97;14.70;;;;;;;0.69;100.00;99974.67;4297060;81;21558;-86
2022/12/01 16:52:33;;;;;;;28.77;15.75;;;;;;;0.70;100.00;99969.52;4256444;81;21016;-87
2022/12/01 16:58:35;;;;;;;26.97;15.43;;;;;;;0.70;100.00;99969.52;4264832;81;21003;-87
2022/12/01 17:04:40;;;;;;;34.15;18.10;;;;;;;0.69;100.00;99964.67;4288635;81;21022;-87
2022/12/01 17:10:50;;;;;;;29.57;16.35;;;;;;;0.67;100.00;99953.39;4289873;81;20998;-87
2022/12/01 17:16:51;;;;;;;33.23;17.65;;;;;;;0.66;100.00;99954.47;4292165;80;21044;-86
2022/12/01 17:22:54;;;;;;;31.27;16.90;;;;;;;0.66;100.00;99958.51;4290071;80;21575;-86
2022/12/01 17:28:59;;;;;;;28.75;14.98;;;;;;;0.63;100.00;99959.08;4291647;81;21013;-87
2022/12/01 17:35:01;;;;;;;23.30;11.13;;;;;;;0.65;100.00;99966.88;4290492;80;21021;-86
2022/12/01 17:41:08;;;;;;;30.32;16.25;;;;;;;0.66;100.00;99975.24;4288453;81;20982;-87
2022/12/01 17:47:10;;;;;;;;;;;;;;;0.67;100.00;99975.48;4275384;81;20989;-87
2022/12/01 17:53:11;;;;;;;38.73;18.32;;;;;;;0.67;100.00;99964.71;4295571;80;20551;-87
2022/12/01 17:59:15;;;;;;;33.60;16.80;;;;;;;0.64;100.00;99962.59;4260402;81;21553;-85
2022/12/01 18:05:17;;;;;;;30.65;17.57;;;;;;;0.61;100.00;99963.95;4291587;81;21008;-86
2022/12/01 18:11:20;;;;;;;40.50;20.55;;;;;;;0.60;100.00;99966.39;4287243;80;20968;-86
2022/12/01 18:17:22;;;;;;;32.35;18.52;;;;;;;0.60;100.00;99967.74;4291627;81;21968;-86
2022/12/01 18:23:23;;;;;;;37.50;18.67;;;;;;;0.60;100.00;99959.66;4276722;81;21542;-87
2022/12/01 18:29:27;;;;;;;37.15;19.77;;;;;;;0.60;100.00;99966.39;4281517;81;21066;-86
2022/12/01 18:35:30;;;;;;;39.08;18.92;;;;;;;0.60;100.00;99969.09;4285574;81;21532;-86
2022/12/01 18:41:32;;;;;;;39.78;19.50;;;;;;;0.62;100.00;99962.06;4290076;81;21050;-86
2022/12/01 18:47:33;;;;;;;36.70;18.75;;;;;;;0.60;100.00;99960.19;4289336;81;21006;-87
2022/12/01 18:53:36;;;;;;;33.40;17.57;;;;;;;0.58;100.00;99961.05;4079338;83;9999522;-86
2022/12/01 18:59:37;;;;;;;43.02;20.77;;;;;;;0.57;100.00;99967.50;4208303;83;21023;-87
2022/12/01 19:05:39;;;;;;;44.18;18.98;;;;;;;0.57;100.00;99960.77;4291279;81;21514;-87
2022/12/01 19:11:41;;;;;;;36.20;18.65;;;;;;;0.57;100.00;99956.19;4285183;81;20999;-86
2022/12/01 19:17:42;;;;;;;49.30;24.32;;;;;;;0.56;100.00;99953.78;4295411;81;21013;-86
2022/12/01 19:23:46;;;;;;;47.83;22.55;;;;;;;0.57;100.00;99962.11;4290545;81;21080;-86
2022/12/01 19:29:48;;;;;;;39.15;19.73;;;;;;;0.58;100.00;99956.44;4292389;81;21391;-87
2022/12/01 19:35:51;;;;;;;47.30;23.50;;;;;;;0.57;100.00;99945.95;4294764;81;21010;-87
2022/12/01 19:41:55;;;;;;;42.00;19.52;;;;;;;0.53;100.00;99949.78;4294709;81;21031;-87
2022/12/01 19:48:10;;;;;;;41.05;19.82;;;;;;;0.51;100.00;99949.26;4284637;81;21471;-87
2022/12/01 19:54:18;;;;;;;38.63;19.45;;;;;;;0.48;100.00;99944.98;4291738;81;21000;-87
2022/12/01 20:00:21;;;;;;;33.70;18.02;;;;;;;0.48;100.00;99951.72;4291503;81;21466;-86
2022/12/01 20:06:27;;;;;;;36.20;18.12;;;;;;;0.47;100.00;99945.52;4295495;81;20995;-86
2022/12/01 20:12:28;;;;;;;44.83;18.85;;;;;;;0.46;100.00;99954.69;4289716;81;21018;-86
2022/12/01 20:18:30;;;;;;;38.02;19.17;;;;;;;0.46;100.00;99952.00;4297624;81;20985;-87
2022/12/01 20:24:31;;;;;;;35.73;17.45;;;;;;;0.43;100.00;99950.41;4293681;81;21047;-87
2022/12/01 20:30:36;;;;;;;40.43;21.05;;;;;;;0.41;100.00;99952.05;4283639;81;21101;-86
2022/12/01 20:36:39;;;;;;;38.67;18.50;;;;;;;0.41;100.00;99950.70;4279989;81;21005;-86
2022/12/01 20:42:42;;;;;;;38.90;18.20;;;;;;;0.40;100.00;99955.03;4279942;81;20963;-87
2022/12/01 20:48:44;;;;;;;33.80;18.32;;;;;;;0.36;100.00;99946.70;4288250;81;21030;-87
2022/12/01 20:54:45;;;;;;;50.78;24.50;;;;;;;0.33;100.00;99940.55;4293509;81;21630;-86
2022/12/01 21:00:47;;;;;;;45.12;20.10;;;;;;;0.20;100.00;99912.96;4276985;81;21005;-86
2022/12/01 21:06:49;;;;;;;39.65;19.73;;;;;;;0.32;100.00;99938.95;4293105;81;21582;-86
2022/12/01 21:19:31;;;;;;;44.70;21.52;;;;;;;0.28;100.00;99946.00;4289365;81;20995;-86
2022/12/01 21:25:35;;;;;;;48.10;22.20;;;;;;;0.29;100.00;99942.75;4282472;81;21061;-86
2022/12/01 21:31:36;;;;;;;41.98;20.32;;;;;;;0.12;100.00;99923.00;4294589;81;20995;-87
2022/12/01 21:37:37;;;;;;;42.50;21.07;;;;;;;0.12;100.00;99923.00;4287094;81;20959;-86
2022/12/01 21:43:39;;;;;;;46.08;21.70;;;;;;;0.21;100.00;99942.02;4282135;81;20999;-87
2022/12/01 21:49:41;;;;;;;42.58;20.08;;;;;;;0.20;100.00;99945.81;4287495;81;21034;-87
2022/12/01 21:55:45;;;;;;;40.92;21.42;;;;;;;0.21;100.00;99946.06;4289904;81;21071;-86
2022/12/01 22:01:55;;;;;;;37.08;19.90;;;;;;;0.15;100.00;99937.23;4276685;81;21046;-86
2022/12/01 22:08:14;;;;;;;47.70;23.62;;;;;;;0.14;100.00;99943.72;4272092;81;21001;-87
2022/12/01 22:14:36;;;;;;;46.88;20.40;;;;;;;0.14;100.00;99936.98;4286246;81;21028;-87
2022/12/01 22:20:38;;;;;;;48.08;22.15;;;;;;;0.14;100.00;99936.98;4289751;81;21071;-86
2022/12/01 22:26:54;;;;;;;43.85;22.13;;;;;;;0.11;100.00;99941.56;4304796;81;21053;-87
2022/12/01 22:33:05;;;;;;;49.90;22.13;;;;;;;0.09;100.00;99930.30;4280080;81;21011;-86
2022/12/01 22:39:12;;;;;;;46.02;22.37;;;;;;;0.08;100.00;99928.67;4307118;81;21082;-86
2022/12/01 22:45:23;;;;;;;49.58;22.25;;;;;;;0.05;100.00;99926.55;4294664;81;21019;-86
2022/12/01 22:51:30;;;;;;;48.35;22.73;;;;;;;0.04;100.00;99930.34;4293733;81;21082;-86
2022/12/01 22:57:34;;;;;;;52.15;23.70;;;;;;;-0.09;100.00;99910.27;4296470;81;21061;-86
2022/12/01 23:03:36;;;;;;;56.37;25.62;;;;;;;0.00;100.00;99919.89;4313505;81;20966;-86
2022/12/01 23:09:41;;;;;;;49.67;22.55;;;;;;;-0.01;100.00;99918.27;4285181;80;21034;-85
2022/12/01 23:15:56;;;;;;;52.83;23.22;;;;;;;-0.04;100.00;99914.80;4290449;81;21537;-85
2022/12/01 23:21:57;;;;;;;53.65;23.00;;;;;;;-0.07;100.00;99908.11;4305122;81;20974;-86
2022/12/01 23:28:05;;;;;;;46.60;21.80;;;;;;;-0.07;100.00;99908.11;4300006;81;21052;-86
2022/12/01 23:34:14;;;;;;;46.53;21.40;;;;;;;-0.08;100.00;99911.08;4300953;82;21015;-85
2022/12/01 23:40:32;;;;;;;46.75;22.15;;;;;;;-0.12;100.00;99916.75;4218413;83;21001;-86
2022/12/01 23:46:34;;;;;;;45.73;22.50;;;;;;;-0.28;100.00;99893.74;4294906;81;21055;-86
2022/12/01 23:52:37;;;;;;;42.60;20.20;;;;;;;-0.27;100.00;99917.68;4292874;81;21096;-86
2022/12/01 23:58:38;;;;;;;45.83;22.55;;;;;;;-0.27;100.00;99917.68;4291604;81;21000;-85
